North Branford, CT

7:01 AM EST on November 22, 2014 (GMT -0500)
Branford | Change Station
CLOSE
Current Station
Personal Weather Station
Location: Branford, CT
Elevation: 125 ft
Nearby Weather Stations

Elev 125 ft 41.30 °N, 72.79 °W | Updated 14 seconds ago

Clear
Clear
25.6 °F
Feels Like 26 °F
N
0.8
Wind Variable Wind from West
Gusts 3.5 mph

Today
High -- | Low -- °F
--% Chance of Precip.
Yesterday
High -- | Low -- °F
Precip. -- in
6:47 AM 4:26 PM
Waning Crescent, 0% visible
Pressure 30.47 in
Visibility 10.0 miles
Clouds Clear
Windchill 26 °F
Dew Point 11 °F
Humidity 54%
Rainfall 0.00 in
Snow Depth Not available.
UV 0 out of 12
Pollen .10 out of 12
Air Quality Not available.
Flu Activity Not available.
METAR KHVN 221153Z 28006KT 10SM CLR 00/M10 A3047 RMK AO2 SLP317 T00001100 10006 21011 55001

More Conditions Fewer Conditions

Pressure 30.47 in
Visibility 10.0 miles
Clouds Clear
Windchill 26 °F
Dew Point 11 °F
Humidity 54%
Rainfall 0.00 in
Snow Depth Not available.
UV 0 out of 12
Pollen .10 out of 12
Air Quality Not available.
Flu Activity Not available.
METAR KHVN 221153Z 28006KT 10SM CLR 00/M10 A3047 RMK AO2 SLP317 T00001100 10006 21011 55001

More Conditions Fewer Conditions

10-Day Weather Forecast

Almanac

Astronomy

Nov. 22, 2014 Rise Set
Actual Time
Civil Twilight
Nautical Twilight
Astronomical Twilight
Moon
Length of Visible Light
Length of Day
Tomorrow will be .
, % of the Moon is Illuminated

Today's Extremes

State Highs State Lows

Community

WunderPhotos

Upload Photos

1,772,812 photos uploaded!

WunderBlogs® & News

Nearby

Air Quality

  Air Quality AQ Index Pollutant
Not available.

Snow Depth

Station Depth Elevation

Earthquake Activity

City Distance Mag. Time & Date
Minimum magnitude displayed is 2.5.

Coastal Water Temperatures

Place Temperature

Nearby Weather Stations